sensor_id;sensor_type;location;lat;lon;timestamp;noise_LAeq;noise_LA_min;noise_LA_max;noise_LA01;noise_LA95
69620;Laerm;57654;51.434;5.984;2022-12-07T20:03:35;37.69;31.71;50.66;;
69620;Laerm;57654;51.434;5.984;2022-12-07T20:03:45;35.83;31.40;46.23;;
69620;Laerm;57654;51.434;5.984;2022-12-07T20:03:56;35.62;31.15;46.83;;
69620;Laerm;57654;51.434;5.984;2022-12-07T20:04:07;39.53;32.04;56.60;;
69620;Laerm;57654;51.434;5.984;2022-12-07T20:04:19;36.36;31.63;44.46;;
69620;Laerm;57654;51.434;5.984;2022-12-07T20:04:30;36.43;30.90;47.77;;
69620;Laerm;57654;51.434;5.984;2022-12-07T20:04:41;35.59;30.56;44.42;;
69620;Laerm;57654;51.434;5.984;2022-12-07T20:04:51;48.65;31.68;61.94;;
69620;Laerm;57654;51.434;5.984;2022-12-07T20:05:02;55.70;29.93;76.17;;
69620;Laerm;57654;51.434;5.984;2022-12-07T20:05:12;37.92;30.41;52.23;;
69620;Laerm;57654;51.434;5.984;2022-12-07T20:05:22;35.38;30.48;46.17;;
69620;Laerm;57654;51.434;5.984;2022-12-07T20:05:33;35.06;30.15;42.31;;
69620;Laerm;57654;51.434;5.984;2022-12-07T20:05:44;39.23;30.67;54.55;;
69620;Laerm;57654;51.434;5.984;2022-12-07T20:05:54;35.78;30.91;45.15;;
69620;Laerm;57654;51.434;5.984;2022-12-07T20:06:09;39.40;32.78;48.08;;
69620;Laerm;57654;51.434;5.984;2022-12-07T20:06:20;46.13;42.55;52.69;;
69620;Laerm;57654;51.434;5.984;2022-12-07T20:06:31;46.44;44.25;50.36;;
69620;Laerm;57654;51.434;5.984;2022-12-07T20:06:41;46.55;44.57;48.28;;
69620;Laerm;57654;51.434;5.984;2022-12-07T20:06:54;41.62;35.54;45.97;;
69620;Laerm;57654;51.434;5.984;2022-12-07T20:07:04;36.32;32.93;44.41;;
69620;Laerm;57654;51.434;5.984;2022-12-07T20:07:14;36.19;32.04;43.82;;
69620;Laerm;57654;51.434;5.984;2022-12-07T20:07:25;37.46;30.93;51.94;;
69620;Laerm;57654;51.434;5.984;2022-12-07T20:07:35;38.61;31.45;52.72;;
69620;Laerm;57654;51.434;5.984;2022-12-07T20:07:48;37.79;31.03;50.31;;
69620;Laerm;57654;51.434;5.984;2022-12-07T20:07:58;40.41;30.48;56.23;;
69620;Laerm;57654;51.434;5.984;2022-12-07T20:08:08;41.02;31.83;56.67;;
69620;Laerm;57654;51.434;5.984;2022-12-07T20:08:18;40.75;31.89;52.29;;
69620;Laerm;57654;51.434;5.984;2022-12-07T20:08:28;39.43;32.18;48.94;;
69620;Laerm;57654;51.434;5.984;2022-12-07T20:08:39;40.53;33.17;56.29;;
69620;Laerm;57654;51.434;5.984;2022-12-07T20:09:27;39.33;32.16;51.26;;
69620;Laerm;57654;51.434;5.984;2022-12-07T20:09:37;39.81;31.77;48.90;;
69620;Laerm;57654;51.434;5.984;2022-12-07T20:09:47;40.37;31.68;51.15;;
69620;Laerm;57654;51.434;5.984;2022-12-07T20:09:57;40.23;32.00;51.09;;
69620;Laerm;57654;51.434;5.984;2022-12-07T20:10:08;38.62;31.61;50.31;;
69620;Laerm;57654;51.434;5.984;2022-12-07T20:10:18;36.81;31.46;46.15;;
69620;Laerm;57654;51.434;5.984;2022-12-07T20:10:29;41.73;32.48;58.38;;
69620;Laerm;57654;51.434;5.984;2022-12-07T20:10:39;55.36;31.82;78.81;;
69620;Laerm;57654;51.434;5.984;2022-12-07T20:10:49;36.20;31.10;46.29;;
69620;Laerm;57654;51.434;5.984;2022-12-07T20:11:00;35.34;29.95;46.25;;
69620;Laerm;57654;51.434;5.984;2022-12-07T20:11:30;37.29;31.03;54.92;;
69620;Laerm;57654;51.434;5.984;2022-12-07T20:11:59;48.26;30.70;74.77;;
69620;Laerm;57654;51.434;5.984;2022-12-07T20:12:28;36.33;30.19;47.64;;
69620;Laerm;57654;51.434;5.984;2022-12-07T20:12:57;41.78;30.75;52.09;;
69620;Laerm;57654;51.434;5.984;2022-12-07T20:13:26;42.58;30.04;54.91;;
69620;Laerm;57654;51.434;5.984;2022-12-07T20:13:41;35.49;30.88;47.92;;
69620;Laerm;57654;51.434;5.984;2022-12-07T20:13:51;35.97;31.02;48.19;;
69620;Laerm;57654;51.434;5.984;2022-12-07T20:14:02;36.41;31.20;48.28;;
69620;Laerm;57654;51.434;5.984;2022-12-07T20:14:14;39.08;30.34;56.61;;
69620;Laerm;57654;51.434;5.984;2022-12-07T20:14:24;35.52;30.60;46.64;;
69620;Laerm;57654;51.434;5.984;2022-12-07T20:14:35;36.38;30.90;52.28;;
69620;Laerm;57654;51.434;5.984;2022-12-07T20:14:46;34.94;30.31;42.58;;
69620;Laerm;57654;51.434;5.984;2022-12-07T20:14:56;34.88;30.88;41.34;;
69620;Laerm;57654;51.434;5.984;2022-12-07T20:15:08;35.25;31.00;44.61;;
69620;Laerm;57654;51.434;5.984;2022-12-07T20:15:18;35.99;31.02;47.91;;
69620;Laerm;57654;51.434;5.984;2022-12-07T20:15:28;35.01;30.88;45.26;;
69620;Laerm;57654;51.434;5.984;2022-12-07T20:15:39;34.48;30.38;44.46;;
69620;Laerm;57654;51.434;5.984;2022-12-07T20:15:49;35.98;30.33;48.34;;
69620;Laerm;57654;51.434;5.984;2022-12-07T20:16:03;35.14;30.72;44.06;;
69620;Laerm;57654;51.434;5.984;2022-12-07T20:16:13;34.45;30.16;42.70;;
69620;Laerm;57654;51.434;5.984;2022-12-07T20:16:24;34.70;31.42;43.82;;
69620;Laerm;57654;51.434;5.984;2022-12-07T20:16:34;35.21;31.10;46.39;;
69620;Laerm;57654;51.434;5.984;2022-12-07T20:16:45;34.09;30.46;43.96;;
69620;Laerm;57654;51.434;5.984;2022-12-07T20:16:56;36.58;30.52;43.90;;
69620;Laerm;57654;51.434;5.984;2022-12-07T20:17:06;48.74;41.84;52.61;;
69620;Laerm;57654;51.434;5.984;2022-12-07T20:17:16;38.62;33.99;43.76;;
69620;Laerm;57654;51.434;5.984;2022-12-07T20:17:27;35.72;32.40;45.62;;
69620;Laerm;57654;51.434;5.984;2022-12-07T20:17:37;35.84;31.23;49.83;;
69620;Laerm;57654;51.434;5.984;2022-12-07T20:17:47;35.60;30.71;45.71;;
69620;Laerm;57654;51.434;5.984;2022-12-07T20:17:57;36.94;31.23;46.79;;
69620;Laerm;57654;51.434;5.984;2022-12-07T20:18:07;34.75;31.25;40.41;;
69620;Laerm;57654;51.434;5.984;2022-12-07T20:18:18;35.15;31.42;46.35;;
69620;Laerm;57654;51.434;5.984;2022-12-07T20:18:28;34.76;31.23;43.92;;
69620;Laerm;57654;51.434;5.984;2022-12-07T20:18:38;36.13;31.13;46.76;;
69620;Laerm;57654;51.434;5.984;2022-12-07T20:18:49;34.95;31.30;44.00;;
69620;Laerm;57654;51.434;5.984;2022-12-07T20:18:59;35.09;31.05;46.32;;
69620;Laerm;57654;51.434;5.984;2022-12-07T20:19:09;35.31;30.89;44.69;;
69620;Laerm;57654;51.434;5.984;2022-12-07T20:19:19;35.42;30.78;47.31;;
69620;Laerm;57654;51.434;5.984;2022-12-07T20:19:30;33.92;30.98;44.20;;
69620;Laerm;57654;51.434;5.984;2022-12-07T20:19:40;35.08;31.09;45.14;;
69620;Laerm;57654;51.434;5.984;2022-12-07T20:19:50;35.37;31.16;44.28;;
69620;Laerm;57654;51.434;5.984;2022-12-07T20:20:00;36.10;30.69;50.28;;
69620;Laerm;57654;51.434;5.984;2022-12-07T20:20:11;35.86;31.18;46.73;;
69620;Laerm;57654;51.434;5.984;2022-12-07T20:20:21;35.62;30.88;48.36;;
69620;Laerm;57654;51.434;5.984;2022-12-07T20:20:31;34.78;30.30;47.74;;
69620;Laerm;57654;51.434;5.984;2022-12-07T20:20:43;35.24;31.10;47.62;;
69620;Laerm;57654;51.434;5.984;2022-12-07T20:21:01;34.48;30.66;42.07;;
69620;Laerm;57654;51.434;5.984;2022-12-07T20:21:11;34.35;30.49;43.23;;
69620;Laerm;57654;51.434;5.984;2022-12-07T20:21:21;33.87;30.19;38.90;;
69620;Laerm;57654;51.434;5.984;2022-12-07T20:21:33;33.98;30.38;41.37;;
69620;Laerm;57654;51.434;5.984;2022-12-07T20:21:43;33.53;30.50;40.64;;
69620;Laerm;57654;51.434;5.984;2022-12-07T20:21:54;33.64;30.72;43.21;;
69620;Laerm;57654;51.434;5.984;2022-12-07T20:22:04;34.86;30.22;43.51;;
69620;Laerm;57654;51.434;5.984;2022-12-07T20:22:14;35.28;31.31;46.46;;
69620;Laerm;57654;51.434;5.984;2022-12-07T20:22:25;34.32;31.12;38.42;;
69620;Laerm;57654;51.434;5.984;2022-12-07T20:22:35;34.47;31.31;39.37;;
69620;Laerm;57654;51.434;5.984;2022-12-07T20:22:45;34.83;31.45;43.77;;
69620;Laerm;57654;51.434;5.984;2022-12-07T20:22:55;36.59;31.07;48.19;;
69620;Laerm;57654;51.434;5.984;2022-12-07T20:23:06;35.48;30.86;45.24;;
69620;Laerm;57654;51.434;5.984;2022-12-07T20:23:16;35.11;31.50;45.93;;
69620;Laerm;57654;51.434;5.984;2022-12-07T20:23:26;34.69;30.53;43.71;;
69620;Laerm;57654;51.434;5.984;2022-12-07T20:23:37;36.16;30.45;51.89;;
69620;Laerm;57654;51.434;5.984;2022-12-07T20:23:47;36.21;30.63;45.27;;
69620;Laerm;57654;51.434;5.984;2022-12-07T20:24:01;35.05;31.05;44.95;;
69620;Laerm;57654;51.434;5.984;2022-12-07T20:24:21;37.18;30.31;48.71;;
69620;Laerm;57654;51.434;5.984;2022-12-07T20:24:31;36.13;31.22;45.79;;
69620;Laerm;57654;51.434;5.984;2022-12-07T20:24:43;36.62;31.37;48.51;;
69620;Laerm;57654;51.434;5.984;2022-12-07T20:24:54;35.66;32.18;44.99;;
69620;Laerm;57654;51.434;5.984;2022-12-07T20:25:04;36.53;32.63;46.01;;
69620;Laerm;57654;51.434;5.984;2022-12-07T20:25:14;35.31;31.25;48.08;;
69620;Laerm;57654;51.434;5.984;2022-12-07T20:25:26;35.04;30.91;42.66;;
69620;Laerm;57654;51.434;5.984;2022-12-07T20:25:36;36.27;31.54;44.53;;
69620;Laerm;57654;51.434;5.984;2022-12-07T20:25:47;34.41;31.01;41.73;;
69620;Laerm;57654;51.434;5.984;2022-12-07T20:26:00;38.53;30.45;45.88;;
69620;Laerm;57654;51.434;5.984;2022-12-07T20:26:11;38.13;33.94;43.78;;
69620;Laerm;57654;51.434;5.984;2022-12-07T20:26:21;38.49;34.27;44.67;;
69620;Laerm;57654;51.434;5.984;2022-12-07T20:26:35;39.39;35.45;44.01;;
69620;Laerm;57654;51.434;5.984;2022-12-07T20:26:46;38.23;33.19;43.22;;
69620;Laerm;57654;51.434;5.984;2022-12-07T20:27:00;35.45;31.36;43.53;;
69620;Laerm;57654;51.434;5.984;2022-12-07T20:27:10;35.20;31.03;47.38;;
69620;Laerm;57654;51.434;5.984;2022-12-07T20:27:21;36.48;31.01;51.03;;
69620;Laerm;57654;51.434;5.984;2022-12-07T20:27:31;34.60;31.21;44.20;;
69620;Laerm;57654;51.434;5.984;2022-12-07T20:27:41;35.07;31.30;44.89;;
69620;Laerm;57654;51.434;5.984;2022-12-07T20:27:51;36.05;31.71;42.90;;
69620;Laerm;57654;51.434;5.984;2022-12-07T20:28:02;41.08;31.06;51.52;;
69620;Laerm;57654;51.434;5.984;2022-12-07T20:28:12;35.07;31.02;40.00;;
69620;Laerm;57654;51.434;5.984;2022-12-07T20:28:22;36.00;31.14;42.92;;
69620;Laerm;57654;51.434;5.984;2022-12-07T20:28:34;39.12;31.47;51.90;;
69620;Laerm;57654;51.434;5.984;2022-12-07T20:28:44;38.28;32.03;49.47;;
69620;Laerm;57654;51.434;5.984;2022-12-07T20:28:55;36.20;31.93;41.52;;
69620;Laerm;57654;51.434;5.984;2022-12-07T20:29:06;40.29;33.04;50.04;;
69620;Laerm;57654;51.434;5.984;2022-12-07T20:29:19;42.30;33.36;54.39;;
69620;Laerm;57654;51.434;5.984;2022-12-07T20:29:29;40.78;32.00;52.87;;
69620;Laerm;57654;51.434;5.984;2022-12-07T20:29:39;39.82;33.03;45.85;;
69620;Laerm;57654;51.434;5.984;2022-12-07T20:29:50;37.32;32.03;43.96;;
69620;Laerm;57654;51.434;5.984;2022-12-07T20:30:00;38.63;33.68;46.20;;
69620;Laerm;57654;51.434;5.984;2022-12-07T20:30:10;38.88;32.90;45.35;;
69620;Laerm;57654;51.434;5.984;2022-12-07T20:30:20;37.97;32.71;44.91;;
69620;Laerm;57654;51.434;5.984;2022-12-07T20:30:31;37.98;31.82;47.68;;
69620;Laerm;57654;51.434;5.984;2022-12-07T20:30:47;36.54;32.18;46.09;;
69620;Laerm;57654;51.434;5.984;2022-12-07T20:30:58;37.88;32.11;46.42;;
69620;Laerm;57654;51.434;5.984;2022-12-07T20:31:08;37.15;31.88;44.21;;
69620;Laerm;57654;51.434;5.984;2022-12-07T20:31:20;37.70;31.11;43.81;;
69620;Laerm;57654;51.434;5.984;2022-12-07T20:31:31;39.30;31.48;49.65;;
69620;Laerm;57654;51.434;5.984;2022-12-07T20:31:41;39.70;32.53;48.60;;
69620;Laerm;57654;51.434;5.984;2022-12-07T20:31:52;36.87;31.39;43.45;;
69620;Laerm;57654;51.434;5.984;2022-12-07T20:32:03;36.99;31.87;43.74;;
69620;Laerm;57654;51.434;5.984;2022-12-07T20:32:13;35.83;31.97;42.26;;
69620;Laerm;57654;51.434;5.984;2022-12-07T20:32:24;36.01;31.58;45.49;;
69620;Laerm;57654;51.434;5.984;2022-12-07T20:32:34;34.90;31.35;42.36;;
69620;Laerm;57654;51.434;5.984;2022-12-07T20:32:44;35.42;30.91;40.86;;
69620;Laerm;57654;51.434;5.984;2022-12-07T20:32:54;34.53;30.21;43.83;;
69620;Laerm;57654;51.434;5.984;2022-12-07T20:33:05;34.97;30.65;42.49;;
69620;Laerm;57654;51.434;5.984;2022-12-07T20:33:15;34.76;30.88;41.23;;
69620;Laerm;57654;51.434;5.984;2022-12-07T20:33:26;35.07;30.98;44.67;;
69620;Laerm;57654;51.434;5.984;2022-12-07T20:33:36;36.51;30.77;44.71;;
69620;Laerm;57654;51.434;5.984;2022-12-07T20:33:46;35.07;31.63;43.34;;
69620;Laerm;57654;51.434;5.984;2022-12-07T20:33:57;36.19;30.76;45.84;;
69620;Laerm;57654;51.434;5.984;2022-12-07T20:34:10;34.98;31.52;41.40;;
69620;Laerm;57654;51.434;5.984;2022-12-07T20:34:20;35.50;31.48;43.38;;
69620;Laerm;57654;51.434;5.984;2022-12-07T20:34:31;38.07;31.86;50.07;;
69620;Laerm;57654;51.434;5.984;2022-12-07T20:34:41;36.21;31.29;44.86;;
69620;Laerm;57654;51.434;5.984;2022-12-07T20:34:53;34.82;31.19;43.25;;
69620;Laerm;57654;51.434;5.984;2022-12-07T20:35:03;35.27;31.00;40.00;;
69620;Laerm;57654;51.434;5.984;2022-12-07T20:35:14;35.04;31.64;43.08;;
69620;Laerm;57654;51.434;5.984;2022-12-07T20:35:24;36.09;31.33;44.88;;
69620;Laerm;57654;51.434;5.984;2022-12-07T20:35:34;36.72;31.44;47.73;;
69620;Laerm;57654;51.434;5.984;2022-12-07T20:35:45;35.69;31.11;43.19;;
69620;Laerm;57654;51.434;5.984;2022-12-07T20:35:59;34.81;31.06;42.29;;
69620;Laerm;57654;51.434;5.984;2022-12-07T20:36:09;35.53;31.05;46.36;;
69620;Laerm;57654;51.434;5.984;2022-12-07T20:36:20;34.99;31.45;42.42;;
69620;Laerm;57654;51.434;5.984;2022-12-07T20:36:30;35.49;31.17;42.97;;
69620;Laerm;57654;51.434;5.984;2022-12-07T20:36:40;37.00;31.65;49.21;;
69620;Laerm;57654;51.434;5.984;2022-12-07T20:36:51;38.61;32.13;46.57;;
69620;Laerm;57654;51.434;5.984;2022-12-07T20:37:02;37.48;32.79;43.52;;
69620;Laerm;57654;51.434;5.984;2022-12-07T20:37:12;37.03;31.74;52.15;;
69620;Laerm;57654;51.434;5.984;2022-12-07T20:37:22;36.21;31.91;43.30;;
69620;Laerm;57654;51.434;5.984;2022-12-07T20:37:32;37.77;31.64;49.02;;
69620;Laerm;57654;51.434;5.984;2022-12-07T20:37:43;37.01;31.60;46.17;;
69620;Laerm;57654;51.434;5.984;2022-12-07T20:37:53;38.41;31.35;49.23;;
69620;Laerm;57654;51.434;5.984;2022-12-07T20:38:04;38.00;33.33;51.07;;
69620;Laerm;57654;51.434;5.984;2022-12-07T20:38:15;36.47;31.44;46.50;;
69620;Laerm;57654;51.434;5.984;2022-12-07T20:38:26;36.91;31.97;46.66;;
69620;Laerm;57654;51.434;5.984;2022-12-07T20:38:36;36.43;31.08;46.51;;
69620;Laerm;57654;51.434;5.984;2022-12-07T20:38:46;36.70;31.54;46.19;;
69620;Laerm;57654;51.434;5.984;2022-12-07T20:38:57;37.55;31.56;48.03;;
69620;Laerm;57654;51.434;5.984;2022-12-07T20:39:08;37.30;32.63;47.20;;
69620;Laerm;57654;51.434;5.984;2022-12-07T20:39:18;36.09;32.26;40.90;;
69620;Laerm;57654;51.434;5.984;2022-12-07T20:39:29;35.92;31.99;41.48;;
69620;Laerm;57654;51.434;5.984;2022-12-07T20:39:39;35.79;31.64;47.49;;
69620;Laerm;57654;51.434;5.984;2022-12-07T20:39:50;36.59;31.35;50.26;;
69620;Laerm;57654;51.434;5.984;2022-12-07T20:40:00;37.00;31.55;47.64;;
69620;Laerm;57654;51.434;5.984;2022-12-07T20:40:10;37.37;32.31;48.07;;
69620;Laerm;57654;51.434;5.984;2022-12-07T20:40:21;35.57;31.53;47.66;;
69620;Laerm;57654;51.434;5.984;2022-12-07T20:40:31;36.33;31.77;44.69;;
69620;Laerm;57654;51.434;5.984;2022-12-07T20:40:45;35.61;31.74;44.35;;
69620;Laerm;57654;51.434;5.984;2022-12-07T20:40:58;36.89;31.78;49.51;;
69620;Laerm;57654;51.434;5.984;2022-12-07T20:41:09;36.15;31.33;46.69;;
69620;Laerm;57654;51.434;5.984;2022-12-07T20:41:38;36.33;31.26;48.65;;
69620;Laerm;57654;51.434;5.984;2022-12-07T20:42:07;36.37;30.94;46.98;;
69620;Laerm;57654;51.434;5.984;2022-12-07T20:42:36;35.81;31.71;44.95;;
69620;Laerm;57654;51.434;5.984;2022-12-07T20:42:46;39.73;35.23;44.36;;
69620;Laerm;57654;51.434;5.984;2022-12-07T20:42:56;50.70;42.37;54.26;;
69620;Laerm;57654;51.434;5.984;2022-12-07T20:43:07;51.34;48.22;54.31;;
69620;Laerm;57654;51.434;5.984;2022-12-07T20:43:17;52.01;49.28;55.18;;
69620;Laerm;57654;51.434;5.984;2022-12-07T20:43:28;46.44;34.93;51.33;;
69620;Laerm;57654;51.434;5.984;2022-12-07T20:43:38;35.76;31.94;43.32;;
69620;Laerm;57654;51.434;5.984;2022-12-07T20:43:48;36.98;31.27;48.03;;
69620;Laerm;57654;51.434;5.984;2022-12-07T20:43:59;35.71;32.13;41.66;;
69620;Laerm;57654;51.434;5.984;2022-12-07T20:44:09;37.91;31.66;49.37;;
69620;Laerm;57654;51.434;5.984;2022-12-07T20:44:19;34.95;31.29;39.54;;
69620;Laerm;57654;51.434;5.984;2022-12-07T20:44:30;36.42;31.83;47.66;;
69620;Laerm;57654;51.434;5.984;2022-12-07T20:44:40;36.85;31.92;48.38;;
69620;Laerm;57654;51.434;5.984;2022-12-07T20:44:50;36.43;31.91;43.71;;
69620;Laerm;57654;51.434;5.984;2022-12-07T20:45:01;36.37;32.39;43.23;;
69620;Laerm;57654;51.434;5.984;2022-12-07T20:45:12;37.58;33.46;45.81;;
69620;Laerm;57654;51.434;5.984;2022-12-07T20:45:22;36.14;32.48;41.38;;
69620;Laerm;57654;51.434;5.984;2022-12-07T20:45:32;36.21;31.98;43.29;;
69620;Laerm;57654;51.434;5.984;2022-12-07T20:45:43;40.49;34.54;47.20;;
69620;Laerm;57654;51.434;5.984;2022-12-07T20:45:54;44.36;32.30;49.23;;
69620;Laerm;57654;51.434;5.984;2022-12-07T20:46:05;37.50;32.33;47.74;;
69620;Laerm;57654;51.434;5.984;2022-12-07T20:46:15;36.41;31.63;45.36;;
69620;Laerm;57654;51.434;5.984;2022-12-07T20:46:25;36.09;32.14;44.94;;
69620;Laerm;57654;51.434;5.984;2022-12-07T20:46:36;37.35;31.71;52.71;;
69620;Laerm;57654;51.434;5.984;2022-12-07T20:46:46;39.98;32.30;51.08;;
69620;Laerm;57654;51.434;5.984;2022-12-07T20:46:57;48.26;40.61;52.07;;
69620;Laerm;57654;51.434;5.984;2022-12-07T20:47:07;39.11;34.48;46.78;;
69620;Laerm;57654;51.434;5.984;2022-12-07T20:47:17;36.50;32.53;44.06;;
69620;Laerm;57654;51.434;5.984;2022-12-07T20:47:28;37.16;32.48;45.40;;
69620;Laerm;57654;51.434;5.984;2022-12-07T20:47:38;35.80;31.73;42.16;;
69620;Laerm;57654;51.434;5.984;2022-12-07T20:47:48;35.58;31.30;42.10;;
69620;Laerm;57654;51.434;5.984;2022-12-07T20:47:58;35.39;30.85;45.28;;
69620;Laerm;57654;51.434;5.984;2022-12-07T20:48:09;35.25;31.33;42.48;;
69620;Laerm;57654;51.434;5.984;2022-12-07T20:48:19;36.30;31.43;45.47;;
69620;Laerm;57654;51.434;5.984;2022-12-07T20:48:29;37.82;32.40;48.19;;
69620;Laerm;57654;51.434;5.984;2022-12-07T20:48:40;37.28;31.87;45.92;;
69620;Laerm;57654;51.434;5.984;2022-12-07T20:48:50;37.25;31.53;46.65;;
69620;Laerm;57654;51.434;5.984;2022-12-07T20:49:00;37.50;31.70;49.58;;
69620;Laerm;57654;51.434;5.984;2022-12-07T20:49:12;36.43;31.52;44.72;;
69620;Laerm;57654;51.434;5.984;2022-12-07T20:49:22;38.24;31.87;53.55;;
69620;Laerm;57654;51.434;5.984;2022-12-07T20:49:33;39.15;31.54;55.01;;
69620;Laerm;57654;51.434;5.984;2022-12-07T20:49:43;35.71;30.84;46.07;;
69620;Laerm;57654;51.434;5.984;2022-12-07T20:49:53;35.54;31.69;45.38;;
69620;Laerm;57654;51.434;5.984;2022-12-07T20:50:04;36.25;31.39;48.02;;
69620;Laerm;57654;51.434;5.984;2022-12-07T20:50:14;36.09;30.53;48.94;;
69620;Laerm;57654;51.434;5.984;2022-12-07T20:50:24;36.91;30.97;53.05;;
69620;Laerm;57654;51.434;5.984;2022-12-07T20:50:35;37.07;31.99;50.92;;
69620;Laerm;57654;51.434;5.984;2022-12-07T20:50:45;36.86;31.50;44.45;;
69620;Laerm;57654;51.434;5.984;2022-12-07T20:51:03;36.09;31.54;44.85;;
69620;Laerm;57654;51.434;5.984;2022-12-07T20:51:13;36.49;30.99;46.22;;
69620;Laerm;57654;51.434;5.984;2022-12-07T20:51:23;35.57;30.69;45.81;;
69620;Laerm;57654;51.434;5.984;2022-12-07T20:51:34;37.90;31.26;51.48;;
69620;Laerm;57654;51.434;5.984;2022-12-07T20:51:44;35.36;31.25;47.65;;
69620;Laerm;57654;51.434;5.984;2022-12-07T20:51:55;37.18;30.88;50.11;;
69620;Laerm;57654;51.434;5.984;2022-12-07T20:52:05;34.64;30.83;40.03;;
69620;Laerm;57654;51.434;5.984;2022-12-07T20:52:15;35.72;31.39;47.14;;
69620;Laerm;57654;51.434;5.984;2022-12-07T20:52:26;35.07;31.73;42.09;;
69620;Laerm;57654;51.434;5.984;2022-12-07T20:52:36;35.11;31.16;45.05;;
69620;Laerm;57654;51.434;5.984;2022-12-07T20:52:47;35.48;31.18;42.97;;
69620;Laerm;57654;51.434;5.984;2022-12-07T20:52:57;34.96;30.29;42.07;;
69620;Laerm;57654;51.434;5.984;2022-12-07T20:53:08;36.45;31.64;48.39;;
69620;Laerm;57654;51.434;5.984;2022-12-07T20:53:18;36.79;31.41;49.49;;
69620;Laerm;57654;51.434;5.984;2022-12-07T20:53:29;37.28;32.32;49.08;;
69620;Laerm;57654;51.434;5.984;2022-12-07T20:53:39;36.75;31.77;45.75;;
69620;Laerm;57654;51.434;5.984;2022-12-07T20:53:49;37.37;31.87;49.80;;
69620;Laerm;57654;51.434;5.984;2022-12-07T20:53:59;36.18;30.71;45.13;;
69620;Laerm;57654;51.434;5.984;2022-12-07T20:54:10;35.68;31.82;41.88;;
69620;Laerm;57654;51.434;5.984;2022-12-07T20:54:20;36.12;31.70;44.11;;
69620;Laerm;57654;51.434;5.984;2022-12-07T20:54:31;35.94;31.73;47.31;;
69620;Laerm;57654;51.434;5.984;2022-12-07T20:54:41;35.70;31.53;42.31;;
69620;Laerm;57654;51.434;5.984;2022-12-07T20:54:51;34.77;30.46;42.59;;
69620;Laerm;57654;51.434;5.984;2022-12-07T20:55:01;35.79;30.66;43.35;;
69620;Laerm;57654;51.434;5.984;2022-12-07T20:55:12;34.62;30.34;40.26;;
69620;Laerm;57654;51.434;5.984;2022-12-07T20:55:22;35.37;30.79;43.48;;
69620;Laerm;57654;51.434;5.984;2022-12-07T20:55:33;34.43;30.72;40.99;;
69620;Laerm;57654;51.434;5.984;2022-12-07T20:55:43;37.09;30.24;45.85;;
69620;Laerm;57654;51.434;5.984;2022-12-07T20:55:53;35.24;30.56;43.00;;
69620;Laerm;57654;51.434;5.984;2022-12-07T20:56:04;36.49;30.78;50.76;;
69620;Laerm;57654;51.434;5.984;2022-12-07T20:56:18;34.88;31.09;41.97;;
69620;Laerm;57654;51.434;5.984;2022-12-07T20:56:29;36.42;30.57;47.41;;
69620;Laerm;57654;51.434;5.984;2022-12-07T20:56:40;35.44;30.82;43.09;;
69620;Laerm;57654;51.434;5.984;2022-12-07T20:56:50;35.14;31.27;44.13;;
69620;Laerm;57654;51.434;5.984;2022-12-07T20:57:00;34.47;31.16;42.64;;
69620;Laerm;57654;51.434;5.984;2022-12-07T20:57:11;35.14;32.05;42.73;;
69620;Laerm;57654;51.434;5.984;2022-12-07T20:57:21;35.38;31.12;44.10;;
69620;Laerm;57654;51.434;5.984;2022-12-07T20:57:31;36.89;31.88;45.11;;
69620;Laerm;57654;51.434;5.984;2022-12-07T20:57:41;34.80;31.78;39.99;;
69620;Laerm;57654;51.434;5.984;2022-12-07T20:57:52;34.69;30.90;43.07;;
69620;Laerm;57654;51.434;5.984;2022-12-07T20:58:02;34.77;31.57;42.28;;
69620;Laerm;57654;51.434;5.984;2022-12-07T20:58:12;37.20;31.23;49.59;;
69620;Laerm;57654;51.434;5.984;2022-12-07T20:58:22;36.69;31.42;44.21;;
69620;Laerm;57654;51.434;5.984;2022-12-07T20:58:33;35.77;31.40;44.62;;
69620;Laerm;57654;51.434;5.984;2022-12-07T20:58:43;36.48;31.34;44.53;;
69620;Laerm;57654;51.434;5.984;2022-12-07T20:58:57;35.36;31.10;45.55;;
69620;Laerm;57654;51.434;5.984;2022-12-07T20:59:09;34.94;31.16;41.56;;
69620;Laerm;57654;51.434;5.984;2022-12-07T20:59:19;38.07;30.48;46.58;;
69620;Laerm;57654;51.434;5.984;2022-12-07T20:59:30;38.09;31.08;46.20;;
69620;Laerm;57654;51.434;5.984;2022-12-07T20:59:40;36.25;30.76;44.16;;
69620;Laerm;57654;51.434;5.984;2022-12-07T20:59:50;36.52;31.11;46.81;;
69620;Laerm;57654;51.434;5.984;2022-12-07T21:00:01;35.76;30.97;44.58;;
69620;Laerm;57654;51.434;5.984;2022-12-07T21:00:11;35.44;30.70;45.42;;
69620;Laerm;57654;51.434;5.984;2022-12-07T21:00:22;35.18;30.78;43.95;;
69620;Laerm;57654;51.434;5.984;2022-12-07T21:00:33;35.48;30.57;45.26;;
69620;Laerm;57654;51.434;5.984;2022-12-07T21:00:44;35.92;30.83;47.62;;
69620;Laerm;57654;51.434;5.984;2022-12-07T21:01:00;35.69;31.35;45.92;;
69620;Laerm;57654;51.434;5.984;2022-12-07T21:01:11;35.42;31.72;42.43;;
69620;Laerm;57654;51.434;5.984;2022-12-07T21:01:21;35.95;31.07;42.00;;
69620;Laerm;57654;51.434;5.984;2022-12-07T21:01:32;34.85;30.95;42.51;;
69620;Laerm;57654;51.434;5.984;2022-12-07T21:01:42;33.80;30.68;40.76;;
69620;Laerm;57654;51.434;5.984;2022-12-07T21:01:53;34.57;30.51;41.53;;
69620;Laerm;57654;51.434;5.984;2022-12-07T21:02:03;34.77;31.00;42.80;;
69620;Laerm;57654;51.434;5.984;2022-12-07T21:02:13;34.66;30.96;40.56;;
69620;Laerm;57654;51.434;5.984;2022-12-07T21:02:23;35.95;30.82;43.25;;
69620;Laerm;57654;51.434;5.984;2022-12-07T21:02:37;34.57;31.10;41.80;;
69620;Laerm;57654;51.434;5.984;2022-12-07T21:02:47;35.35;31.25;42.38;;
69620;Laerm;57654;51.434;5.984;2022-12-07T21:02:58;34.43;30.91;39.62;;
69620;Laerm;57654;51.434;5.984;2022-12-07T21:03:08;34.52;30.98;41.50;;
69620;Laerm;57654;51.434;5.984;2022-12-07T21:03:19;35.73;31.12;47.03;;
69620;Laerm;57654;51.434;5.984;2022-12-07T21:03:29;34.83;31.22;41.35;;
69620;Laerm;57654;51.434;5.984;2022-12-07T21:03:39;45.35;33.58;50.92;;
69620;Laerm;57654;51.434;5.984;2022-12-07T21:03:53;51.74;48.84;53.94;;
69620;Laerm;57654;51.434;5.984;2022-12-07T21:04:04;49.16;42.88;52.17;;
69620;Laerm;57654;51.434;5.984;2022-12-07T21:04:14;40.12;35.48;44.70;;
69620;Laerm;57654;51.434;5.984;2022-12-07T21:04:25;36.66;33.17;42.74;;
69620;Laerm;57654;51.434;5.984;2022-12-07T21:04:35;36.21;31.76;46.44;;
69620;Laerm;57654;51.434;5.984;2022-12-07T21:04:45;35.37;31.71;45.70;;
69620;Laerm;57654;51.434;5.984;2022-12-07T21:04:55;35.23;31.03;41.07;;
69620;Laerm;57654;51.434;5.984;2022-12-07T21:05:06;34.52;31.37;43.10;;
69620;Laerm;57654;51.434;5.984;2022-12-07T21:05:16;35.45;31.49;43.73;;
69620;Laerm;57654;51.434;5.984;2022-12-07T21:05:27;35.85;31.52;47.22;;
69620;Laerm;57654;51.434;5.984;2022-12-07T21:05:37;34.98;31.82;40.87;;
69620;Laerm;57654;51.434;5.984;2022-12-07T21:05:48;36.09;31.80;42.30;;
69620;Laerm;57654;51.434;5.984;2022-12-07T21:06:00;36.26;31.80;48.48;;
69620;Laerm;57654;51.434;5.984;2022-12-07T21:06:14;37.85;32.85;49.09;;
69620;Laerm;57654;51.434;5.984;2022-12-07T21:06:25;36.71;31.94;44.48;;
69620;Laerm;57654;51.434;5.984;2022-12-07T21:06:35;36.80;32.43;45.46;;
69620;Laerm;57654;51.434;5.984;2022-12-07T21:06:45;35.79;31.82;43.57;;